createdAt,value
2023-03-10T00:03:23.621Z,94.43
2023-03-10T00:08:26.101Z,94.55
2023-03-10T00:13:25.648Z,93.52
2023-03-10T00:18:24.445Z,94.24
2023-03-10T00:23:24.486Z,93.93
2023-03-10T00:28:23.251Z,93.92
2023-03-10T00:33:21.956Z,93.16
2023-03-10T00:38:20.651Z,92.41
2023-03-10T00:43:20.817Z,93.13
2023-03-10T00:48:19.866Z,92.00
2023-03-10T00:53:18.849Z,91.18
2023-03-10T00:58:17.521Z,90.52
2023-03-10T01:03:17.596Z,89.43
2023-03-10T01:08:17.125Z,88.60
2023-03-10T01:13:17.435Z,89.78
2023-03-10T01:18:18.936Z,88.33
2023-03-10T01:23:20.962Z,87.08
2023-03-10T01:28:22.013Z,88.84
2023-03-10T01:33:22.155Z,88.09
2023-03-10T01:38:20.872Z,88.13
2023-03-10T01:43:31.688Z,87.95
2023-03-10T01:48:35.307Z,87.61
2023-03-10T01:53:35.133Z,86.58
2023-03-10T01:58:44.247Z,88.74
2023-03-10T02:03:49.708Z,87.46
2023-03-10T02:08:54.336Z,87.12
2023-03-10T02:13:53.128Z,87.57
2023-03-10T02:18:53.234Z,86.41
2023-03-10T02:24:01.748Z,88.07
2023-03-10T02:29:05.616Z,88.06
2023-03-10T02:34:06.740Z,88.10
2023-03-10T02:39:06.039Z,86.41
2023-03-10T02:44:10.773Z,87.39
2023-03-10T02:49:10.982Z,87.41
2023-03-10T02:54:14.183Z,89.19
2023-03-10T02:59:15.105Z,91.82
2023-03-10T03:04:18.965Z,89.61
2023-03-10T03:09:18.455Z,88.00
2023-03-10T03:14:19.892Z,90.17
2023-03-10T03:19:20.810Z,91.04
2023-03-10T03:24:21.209Z,90.12
2023-03-10T03:29:21.744Z,88.61
2023-03-10T03:34:21.109Z,88.89
2023-03-10T03:39:22.751Z,89.38
2023-03-10T03:44:27.716Z,90.73
2023-03-10T03:49:27.669Z,88.48
2023-03-10T03:54:26.944Z,86.73
2023-03-10T03:59:27.298Z,87.43
2023-03-10T04:04:27.414Z,86.25
2023-03-10T04:09:27.015Z,86.04
2023-03-10T04:14:27.280Z,86.04
2023-03-10T04:19:27.511Z,86.99
2023-03-10T04:24:32.265Z,85.91
2023-03-10T04:29:33.169Z,85.19
2023-03-10T04:34:32.615Z,84.80
2023-03-10T04:39:31.572Z,85.15
2023-03-10T04:44:31.629Z,83.43
2023-03-10T04:49:34.783Z,83.04
2023-03-10T04:54:34.708Z,83.94
2023-03-10T04:59:33.519Z,83.17
2023-03-10T05:04:32.564Z,84.10
2023-03-10T05:09:35.524Z,83.04
2023-03-10T05:14:34.672Z,82.77
2023-03-10T05:19:37.320Z,83.80
2023-03-10T05:24:38.035Z,83.96
2023-03-10T05:29:42.236Z,83.82
2023-03-10T05:34:47.707Z,83.55
2023-03-10T05:39:51.333Z,83.54
2023-03-10T05:44:52.542Z,82.36
2023-03-10T05:49:51.468Z,81.49
2023-03-10T05:54:52.419Z,81.58
2023-03-10T05:59:52.149Z,81.77
2023-03-10T06:04:51.200Z,79.63
2023-03-10T06:09:54.167Z,79.03
2023-03-10T06:14:52.890Z,77.47
2023-03-10T06:19:52.543Z,77.59
2023-03-10T06:24:52.682Z,77.38
2023-03-10T06:29:51.580Z,76.09
2023-03-10T06:34:50.376Z,76.90
2023-03-10T06:39:49.129Z,77.13
2023-03-10T06:44:49.560Z,77.67
2023-03-10T06:49:49.442Z,77.21
2023-03-10T06:54:48.231Z,75.72
2023-03-10T06:59:48.364Z,74.30
2023-03-10T07:04:47.454Z,73.60
2023-03-10T07:09:47.124Z,72.12
2023-03-10T07:14:45.880Z,70.40
2023-03-10T07:19:46.352Z,69.24
2023-03-10T07:24:45.125Z,68.55
2023-03-10T07:29:43.811Z,68.43
2023-03-10T07:34:42.575Z,67.00
2023-03-10T07:39:42.713Z,67.58
2023-03-10T07:44:41.448Z,66.92
2023-03-10T07:49:46.478Z,68.27
2023-03-10T07:54:47.046Z,67.28
2023-03-10T07:59:46.067Z,67.65
2023-03-10T08:04:45.234Z,66.17
2023-03-10T08:09:44.091Z,65.49
2023-03-10T08:14:44.368Z,64.80
2023-03-10T08:19:43.128Z,63.87
2023-03-10T08:24:41.785Z,63.56
2023-03-10T08:29:40.481Z,62.67
2023-03-10T08:34:41.757Z,62.55
2023-03-10T08:39:40.625Z,63.20
2023-03-10T08:44:39.412Z,62.65
2023-03-10T08:49:38.157Z,63.33
2023-03-10T08:54:38.276Z,62.76
2023-03-10T08:59:37.369Z,62.42
2023-03-10T09:04:36.172Z,61.31
2023-03-10T09:09:34.945Z,59.77
2023-03-10T09:14:35.159Z,57.92
2023-03-10T09:19:33.914Z,55.52
2023-03-10T09:24:32.726Z,53.73
2023-03-10T09:29:42.528Z,52.44
2023-03-10T09:34:43.637Z,49.56
2023-03-10T09:39:42.517Z,48.60
2023-03-10T09:44:48.503Z,47.28
2023-03-10T09:49:55.967Z,44.19
2023-03-10T09:55:01.269Z,40.45
2023-03-10T10:00:05.185Z,39.28
2023-03-10T10:05:17.107Z,38.41
2023-03-10T10:10:19.769Z,37.38
2023-03-10T10:15:22.360Z,38.79
2023-03-10T10:20:26.628Z,36.44
2023-03-10T10:25:26.951Z,36.56
2023-03-10T10:30:35.703Z,37.38
2023-03-10T10:35:38.661Z,36.73
2023-03-10T10:40:47.634Z,36.10
2023-03-10T10:45:54.230Z,36.93
2023-03-10T10:50:56.010Z,35.23
2023-03-10T10:56:00.967Z,33.42
2023-03-10T11:01:01.748Z,33.28
2023-03-10T11:06:15.386Z,32.69
2023-03-10T11:11:23.441Z,30.25
2023-03-10T11:16:29.604Z,30.11
2023-03-10T11:21:33.276Z,29.93
2023-03-10T11:26:44.729Z,30.79
2023-03-10T11:31:51.589Z,28.43
2023-03-10T11:37:02.883Z,28.98
2023-03-10T11:42:07.186Z,28.91
2023-03-10T11:47:13.131Z,30.66
2023-03-10T11:52:18.137Z,31.03
2023-03-10T11:57:20.378Z,31.69
2023-03-10T12:02:25.520Z,30.14
2023-03-10T12:07:30.673Z,31.47
2023-03-10T12:12:33.533Z,30.35
2023-03-10T12:17:33.042Z,31.28
2023-03-10T12:22:40.857Z,32.03
2023-03-10T12:28:13.741Z,32.88
2023-03-10T12:33:43.861Z,32.08
2023-03-10T12:38:51.366Z,32.13
2023-03-10T12:43:59.699Z,32.01
2023-03-10T12:49:09.350Z,32.67
2023-03-10T12:54:32.018Z,31.44
2023-03-10T12:59:39.777Z,31.44
2023-03-10T13:04:38.812Z,30.98
2023-03-10T13:09:43.045Z,31.85
2023-03-10T13:14:43.924Z,31.04
2023-03-10T13:19:42.810Z,31.75
2023-03-10T13:24:43.363Z,32.37
2023-03-10T13:29:54.374Z,32.09
2023-03-10T13:34:53.299Z,32.40
2023-03-10T13:39:53.701Z,32.90
2023-03-10T13:44:53.652Z,33.88
2023-03-10T13:49:54.815Z,34.21
2023-03-10T13:55:06.610Z,33.89
2023-03-10T14:00:08.532Z,34.34
2023-03-10T14:05:38.982Z,35.29
2023-03-10T14:10:39.273Z,35.57
2023-03-10T14:15:39.160Z,36.26
2023-03-10T14:20:40.041Z,36.63
2023-03-10T14:25:42.580Z,37.47
2023-03-10T14:30:44.254Z,38.17
2023-03-10T14:35:44.099Z,38.60
2023-03-10T14:40:47.389Z,39.02
2023-03-10T14:45:47.821Z,39.25
2023-03-10T14:50:48.316Z,39.76
2023-03-10T14:55:51.490Z,40.28
2023-03-10T15:00:50.858Z,40.84
2023-03-10T15:05:49.701Z,41.42
2023-03-10T15:10:52.237Z,40.37
2023-03-10T15:15:51.522Z,40.73
2023-03-10T15:20:50.659Z,39.77
2023-03-10T15:25:50.870Z,39.94
2023-03-10T15:30:50.214Z,39.75
2023-03-10T15:35:50.156Z,39.77
2023-03-10T15:40:50.550Z,39.74
2023-03-10T15:45:50.455Z,40.13
2023-03-10T15:50:49.156Z,40.22
2023-03-10T15:55:48.480Z,40.13
2023-03-10T16:00:48.646Z,40.25
2023-03-10T16:05:49.171Z,40.86
2023-03-10T16:10:54.641Z,40.81
2023-03-10T16:15:54.846Z,41.46
2023-03-10T16:20:58.696Z,42.51
2023-03-10T16:26:10.252Z,43.53
2023-03-10T16:31:11.484Z,43.90
2023-03-10T16:36:14.535Z,45.02
2023-03-10T16:41:14.045Z,45.53
2023-03-10T16:46:17.439Z,47.37
2023-03-10T16:51:23.325Z,51.07
2023-03-10T16:56:23.115Z,55.99
2023-03-10T17:01:24.327Z,55.41
2023-03-10T17:06:25.297Z,57.15
2023-03-10T17:11:26.820Z,58.36
2023-03-10T17:16:29.326Z,61.57
2023-03-10T17:21:29.934Z,62.25
2023-03-10T17:26:28.981Z,61.59
2023-03-10T17:31:30.776Z,62.84
2023-03-10T17:36:30.328Z,63.29
2023-03-10T17:41:30.543Z,63.69
2023-03-10T17:46:32.908Z,63.29
2023-03-10T17:51:32.450Z,64.26
2023-03-10T17:56:31.429Z,64.58
2023-03-10T18:01:33.696Z,66.69
2023-03-10T18:06:34.537Z,66.43
2023-03-10T18:11:33.749Z,66.09
2023-03-10T18:16:35.743Z,65.88
2023-03-10T18:21:34.701Z,64.79
2023-03-10T18:26:33.883Z,65.11
2023-03-10T18:31:34.847Z,65.13
2023-03-10T18:36:34.216Z,65.18
2023-03-10T18:41:33.059Z,66.12
2023-03-10T18:46:33.460Z,66.30
2023-03-10T18:51:32.322Z,64.89
2023-03-10T18:56:31.601Z,66.81
2023-03-10T19:01:30.710Z,67.20
2023-03-10T19:06:35.448Z,66.16
2023-03-10T19:11:36.198Z,66.30
2023-03-10T19:16:36.678Z,67.41
2023-03-10T19:21:38.200Z,67.82
2023-03-10T19:26:37.378Z,68.50
2023-03-10T19:31:36.501Z,68.93
2023-03-10T19:36:36.628Z,70.64
2023-03-10T19:41:35.546Z,70.35
2023-03-10T19:46:34.672Z,70.48
2023-03-10T19:51:38.499Z,68.75
2023-03-10T19:56:37.390Z,67.30
2023-03-10T20:01:39.032Z,66.46
2023-03-10T20:06:39.441Z,66.46
2023-03-10T20:11:38.901Z,66.15
2023-03-10T20:16:37.718Z,65.61
2023-03-10T20:21:36.479Z,65.88
2023-03-10T20:26:36.920Z,65.50
2023-03-10T20:31:36.280Z,65.99
2023-03-10T20:36:39.357Z,65.19
2023-03-10T20:41:42.270Z,64.62
2023-03-10T20:46:45.304Z,64.34
2023-03-10T20:51:44.007Z,64.46
2023-03-10T20:56:44.309Z,64.27
2023-03-10T21:01:43.150Z,64.12
2023-03-10T21:06:41.966Z,64.95
2023-03-10T21:11:41.493Z,64.50
2023-03-10T21:16:42.171Z,64.56
2023-03-10T21:21:43.295Z,64.28
2023-03-10T21:26:42.000Z,64.37
2023-03-10T21:31:42.314Z,64.64
2023-03-10T21:36:41.152Z,64.20
2023-03-10T21:41:40.249Z,64.47
2023-03-10T21:46:39.130Z,64.47
2023-03-10T21:51:39.469Z,64.25
2023-03-10T21:56:38.381Z,64.28
2023-03-10T22:01:37.206Z,64.46
2023-03-10T22:06:36.034Z,64.90
2023-03-10T22:11:36.256Z,64.18
2023-03-10T22:16:35.001Z,63.78
2023-03-10T22:21:33.861Z,63.47
2023-03-10T22:26:32.638Z,63.96
2023-03-10T22:31:33.153Z,63.91
2023-03-10T22:36:32.212Z,63.62
2023-03-10T22:41:31.072Z,63.76
2023-03-10T22:46:29.787Z,63.59
2023-03-10T22:51:29.945Z,63.77
2023-03-10T22:56:28.817Z,63.60
2023-03-10T23:01:27.647Z,63.86
2023-03-10T23:06:29.190Z,63.63
2023-03-10T23:11:29.419Z,63.77
2023-03-10T23:16:28.679Z,63.36
2023-03-10T23:21:27.544Z,63.85
2023-03-10T23:26:27.253Z,64.11
2023-03-10T23:31:27.530Z,64.03
2023-03-10T23:36:26.311Z,64.24
2023-03-10T23:41:25.416Z,63.80
2023-03-10T23:46:24.169Z,64.72
2023-03-10T23:51:24.321Z,65.01
2023-03-10T23:56:23.077Z,64.98
